Time;durP1;ratioP1;P1;durP2;ratioP2;P2;SDS_P1;SDS_P2;PMS_P1;PMS_P2;Temp;Humidity;BMP_temperature;BMP_pressure;BME280_temperature;BME280_humidity;BME280_pressure;Samples;Min_cycle;Max_cycle;Signal;HPM_P1;HPM_P2
2022/12/04 07:55:52;;;;;;;22.75;9.27;;;;;;;0.69;100.00;98683.50;5151106;27;20356;-77
2022/12/04 07:58:18;;;;;;;20.33;8.88;;;;;;;0.93;100.00;98708.22;5151591;27;20119;-76
2022/12/04 08:00:45;;;;;;;33.10;13.60;;;;;;;1.01;100.00;98724.44;5130690;27;20134;-77
2022/12/04 08:03:11;;;;;;;24.27;10.32;;;;;;;0.97;100.00;98712.34;5148760;27;20130;-78
2022/12/04 08:05:39;;;;;;;25.42;10.40;;;;;;;1.01;100.00;98695.88;5151423;27;20043;-78
2022/12/04 08:08:06;;;;;;;25.67;9.60;;;;;;;1.19;100.00;98705.91;5144898;27;20071;-78
2022/12/04 08:10:32;;;;;;;22.25;8.35;;;;;;;1.16;100.00;98716.91;5133213;27;20051;-78
2022/12/04 08:13:00;;;;;;;19.73;8.60;;;;;;;1.28;100.00;98718.50;5148829;27;20050;-78
2022/12/04 08:15:27;;;;;;;15.32;7.95;;;;;;;1.22;100.00;98708.34;5144914;27;20130;-78
2022/12/04 08:17:53;;;;;;;24.90;9.57;;;;;;;1.33;100.00;98702.84;5145025;27;20513;-78
2022/12/04 08:20:21;;;;;;;23.48;9.40;;;;;;;1.42;100.00;98711.91;5149788;27;20050;-78
2022/12/04 08:22:48;;;;;;;18.88;8.45;;;;;;;1.31;100.00;98707.53;5148262;27;20046;-78
2022/12/04 08:25:14;;;;;;;18.38;7.95;;;;;;;1.13;100.00;98688.59;5149324;27;20073;-78
2022/12/04 08:27:45;;;;;;;20.40;8.80;;;;;;;1.25;100.00;98700.03;5142465;27;20051;-78
2022/12/04 08:30:14;;;;;;;17.95;8.80;;;;;;;1.26;100.00;98692.84;5149467;27;20043;-78
2022/12/04 08:32:40;;;;;;;21.77;9.50;;;;;;;1.32;100.00;98701.16;5145966;27;20131;-78
2022/12/04 08:35:07;;;;;;;28.67;9.98;;;;;;;1.33;100.00;98696.66;5145617;27;20043;-78
2022/12/04 08:37:34;;;;;;;23.98;9.07;;;;;;;1.32;100.00;98690.44;5142784;27;20340;-78
2022/12/04 08:40:01;;;;;;;21.75;9.27;;;;;;;1.42;100.00;98707.38;5147920;27;20504;-78
2022/12/04 08:42:27;;;;;;;20.95;9.18;;;;;;;1.35;100.00;98706.25;5148175;27;20058;-78
2022/12/04 08:44:54;;;;;;;25.70;8.82;;;;;;;1.35;100.00;98713.44;5146261;27;20047;-78
2022/12/04 08:47:22;;;;;;;21.40;9.32;;;;;;;1.31;100.00;98690.59;5148588;27;20133;-77
2022/12/04 08:49:48;;;;;;;18.73;8.93;;;;;;;1.37;100.00;98704.28;5148861;27;20436;-77
2022/12/04 08:52:15;;;;;;;19.00;8.55;;;;;;;1.47;100.00;98716.84;5142394;27;20047;-78
2022/12/04 08:54:42;;;;;;;19.30;8.57;;;;;;;1.57;100.00;98726.59;5148320;27;20055;-78
2022/12/04 08:57:08;;;;;;;19.00;7.88;;;;;;;1.36;100.00;98699.91;5148660;27;20187;-78
2022/12/04 08:59:35;;;;;;;18.63;8.77;;;;;;;1.43;100.00;98702.91;5148700;27;20046;-78
2022/12/04 09:02:01;;;;;;;21.15;8.38;;;;;;;1.49;100.00;98725.59;5145441;27;20053;-78
2022/12/04 09:04:29;;;;;;;20.02;9.32;;;;;;;1.38;100.00;98727.38;5148111;27;20504;-78
2022/12/04 09:06:56;;;;;;;21.00;8.95;;;;;;;1.44;100.00;98728.69;5135169;27;20057;-77
2022/12/04 09:09:22;;;;;;;20.92;8.27;;;;;;;1.59;100.00;98746.03;5124978;27;20051;-77
2022/12/04 09:11:49;;;;;;;18.48;9.52;;;;;;;1.63;100.00;98737.75;5127297;27;20498;-77
2022/12/04 09:14:17;;;;;;;20.52;9.63;;;;;;;1.65;100.00;98749.19;5130869;27;20486;-77
2022/12/04 09:16:44;;;;;;;16.73;9.23;;;;;;;1.54;100.00;98732.22;5131728;27;20043;-77
2022/12/04 09:19:11;;;;;;;21.80;9.10;;;;;;;1.65;100.00;98758.06;5133991;27;20058;-78
2022/12/04 09:21:39;;;;;;;23.27;9.38;;;;;;;1.66;100.00;98745.53;5128269;27;20082;-78
2022/12/04 09:24:06;;;;;;;22.20;8.98;;;;;;;1.75;100.00;98764.28;5129968;27;20573;-78
2022/12/04 09:26:33;;;;;;;20.75;8.63;;;;;;;1.53;100.00;98733.22;5123935;27;20058;-78
2022/12/04 09:29:02;;;;;;;20.67;8.77;;;;;;;1.79;100.00;98753.28;5133592;27;20050;-78
2022/12/04 09:31:29;;;;;;;23.23;9.20;;;;;;;1.57;100.00;98725.75;5132024;27;20046;-78
2022/12/04 09:33:58;;;;;;;24.25;9.30;;;;;;;1.59;100.00;98723.78;5130687;27;20051;-78
2022/12/04 09:36:25;;;;;;;23.02;8.90;;;;;;;1.74;100.00;98745.66;5133601;27;20054;-78
2022/12/04 09:38:54;;;;;;;25.23;9.02;;;;;;;1.61;100.00;98729.00;5121022;27;20437;-78
2022/12/04 09:41:45;;;;;;;22.80;9.98;;;;;;;1.67;100.00;98736.47;5115172;27;20056;-77
2022/12/04 09:44:18;;;;;;;21.33;9.48;;;;;;;1.55;100.00;98700.91;5130871;27;20054;-78
2022/12/04 09:46:51;;;;;;;23.30;9.25;;;;;;;1.61;100.00;98691.47;5133126;27;20046;-79
2022/12/04 09:49:22;;;;;;;16.48;8.23;;;;;;;1.89;100.00;98711.25;5131439;27;20044;-78
2022/12/04 09:51:52;;;;;;;18.95;9.25;;;;;;;1.82;100.00;98712.78;5112229;28;20083;-79
2022/12/04 09:54:23;;;;;;;17.33;8.70;;;;;;;1.70;100.00;98690.63;5130594;27;20135;-78
2022/12/04 09:56:55;;;;;;;25.50;9.93;;;;;;;1.86;100.00;98690.94;5133458;27;20046;-78
2022/12/04 09:59:24;;;;;;;20.00;9.30;;;;;;;1.67;100.00;98661.44;5128158;27;20083;-78
2022/12/04 10:01:56;;;;;;;19.95;8.98;;;;;;;1.77;100.00;98673.84;5126279;27;20075;-78
2022/12/04 10:04:25;;;;;;;27.98;13.32;;;;;;;1.74;100.00;98655.38;5132787;27;20681;-79
2022/12/04 10:07:15;;;;;;;20.33;9.20;;;;;;;1.94;100.00;98656.25;5132853;27;20047;-77
2022/12/04 10:09:49;;;;;;;17.55;8.32;;;;;;;2.00;100.00;98660.16;5128474;27;20509;-78
2022/12/04 10:12:26;;;;;;;20.27;8.73;;;;;;;1.83;100.00;98645.66;5113594;27;20505;-79
2022/12/04 10:15:04;;;;;;;19.55;8.38;;;;;;;1.83;100.00;98644.81;5130959;27;20069;-79
2022/12/04 10:17:55;;;;;;;21.42;8.45;;;;;;;1.70;100.00;98626.31;5123381;27;20051;-79
2022/12/04 10:20:38;;;;;;;19.15;8.05;;;;;;;1.96;100.00;98653.41;5132900;27;20444;-79
2022/12/04 10:23:11;;;;;;;18.75;7.47;;;;;;;1.97;100.00;98635.47;5115783;27;20047;-78
2022/12/04 10:25:40;;;;;;;17.58;8.20;;;;;;;2.07;100.00;98639.84;5132126;27;20042;-78
2022/12/04 10:28:21;;;;;;;20.77;8.70;;;;;;;2.06;100.00;98622.06;5132610;27;20062;-78
2022/12/04 10:30:50;;;;;;;15.77;7.35;;;;;;;2.07;100.00;98634.47;5132123;27;20055;-78
2022/12/04 10:33:19;;;;;;;18.65;7.90;;;;;;;1.98;100.00;98631.81;5119300;27;20116;-77
2022/12/04 10:35:51;;;;;;;18.30;8.07;;;;;;;2.06;100.00;98637.31;5127494;27;20044;-79
2022/12/04 10:38:28;;;;;;;13.82;7.47;;;;;;;1.92;100.00;98615.31;5127113;27;20043;-78
2022/12/04 10:41:00;;;;;;;15.80;7.40;;;;;;;2.04;100.00;98645.50;5132766;27;20316;-79
2022/12/04 10:43:34;;;;;;;18.95;7.97;;;;;;;2.01;100.00;98637.72;5130520;27;20433;-78
2022/12/04 10:46:01;;;;;;;16.98;6.97;;;;;;;1.87;100.00;98616.75;5127092;27;20550;-77
2022/12/04 10:48:34;;;;;;;21.40;8.10;;;;;;;1.96;100.00;98648.06;5112736;28;20051;-78
2022/12/04 10:51:00;;;;;;;23.75;8.10;;;;;;;1.94;100.00;98639.28;5120470;27;20043;-79
2022/12/04 10:53:30;;;;;;;19.92;7.55;;;;;;;2.05;100.00;98655.22;5130464;27;20054;-78
2022/12/04 10:56:12;;;;;;;13.98;7.88;;;;;;;1.92;100.00;98631.38;5128883;27;20508;-78
2022/12/04 10:58:39;;;;;;;17.85;7.78;;;;;;;2.03;100.00;98654.53;5111933;28;20514;-78
2022/12/04 11:01:08;;;;;;;20.92;8.65;;;;;;;2.12;100.00;98663.53;5111613;28;20139;-78
2022/12/04 11:03:35;;;;;;;19.10;8.87;;;;;;;2.10;100.00;98662.84;5123800;27;20513;-78
2022/12/04 11:06:04;;;;;;;16.38;7.18;;;;;;;1.97;100.00;98649.72;5128227;27;20301;-78
2022/12/04 11:08:36;;;;;;;16.65;7.97;;;;;;;2.06;100.00;98639.97;5126974;27;20055;-78
2022/12/04 11:11:06;;;;;;;20.35;8.27;;;;;;;2.12;100.00;98642.09;5111721;28;20043;-78
2022/12/04 11:13:34;;;;;;;18.58;8.45;;;;;;;2.12;100.00;98639.41;5128452;27;20134;-79
2022/12/04 11:16:01;;;;;;;18.25;7.65;;;;;;;2.20;100.00;98647.59;5130354;27;20332;-79
2022/12/04 11:18:30;;;;;;;16.00;7.90;;;;;;;2.12;100.00;98632.22;5113332;27;20051;-78
2022/12/04 11:20:59;;;;;;;16.83;8.30;;;;;;;2.10;100.00;98609.22;5111059;28;20135;-79
2022/12/04 11:23:27;;;;;;;21.93;9.00;;;;;;;2.23;100.00;98630.34;5125243;27;20553;-78
2022/12/04 11:26:01;;;;;;;18.52;8.27;;;;;;;2.22;100.00;98631.34;5127256;27;20051;-78
2022/12/04 11:28:30;;;;;;;15.85;7.70;;;;;;;2.13;100.00;98609.75;5131020;27;20078;-78
2022/12/04 11:31:00;;;;;;;16.60;8.77;;;;;;;2.02;100.00;98614.44;5131753;27;20050;-78
2022/12/04 11:33:32;;;;;;;18.95;8.18;;;;;;;2.08;100.00;98614.72;5118478;27;20486;-78
2022/12/04 11:36:05;;;;;;;22.85;9.02;;;;;;;2.00;100.00;98621.78;5126130;27;20054;-79
2022/12/04 11:38:35;;;;;;;19.42;8.40;;;;;;;2.12;100.00;98640.28;5131834;27;20500;-77
2022/12/04 11:41:05;;;;;;;14.60;7.32;;;;;;;2.06;100.00;98631.94;5131782;27;20500;-78
2022/12/04 11:43:32;;;;;;;;;;;;;;;2.27;100.00;98642.47;5126086;27;20055;-79
2022/12/04 11:46:08;;;;;;;17.38;7.68;;;;;;;2.03;100.00;98616.13;5132972;27;19919;-78
2022/12/04 11:48:43;;;;;;;16.42;6.75;;;;;;;2.00;100.00;98613.75;5131050;27;20047;-78
2022/12/04 11:51:19;;;;;;;22.95;13.75;;;;;;;2.24;100.00;98638.28;5115466;27;20103;-79
2022/12/04 11:53:53;;;;;;;21.75;8.02;;;;;;;2.21;100.00;98626.97;5113931;27;20619;-79
2022/12/04 11:56:29;;;;;;;20.13;8.18;;;;;;;2.18;100.00;98648.72;5111919;27;20497;-78
2022/12/04 11:59:23;;;;;;;17.67;8.45;;;;;;;1.88;100.00;98624.66;5116229;28;20051;-78
2022/12/04 12:01:57;;;;;;;17.13;7.85;;;;;;;1.85;100.00;98622.25;5111736;27;20082;-79
2022/12/04 12:04:51;;;;;;;17.23;7.63;;;;;;;1.99;100.00;98645.09;5113844;27;20123;-79
2022/12/04 12:07:29;;;;;;;15.25;7.03;;;;;;;1.88;100.00;98618.41;5104170;27;20083;-79
2022/12/04 12:10:03;;;;;;;16.73;7.38;;;;;;;1.74;100.00;98611.66;5108473;27;20047;-79
2022/12/04 12:12:40;;;;;;;20.00;7.93;;;;;;;1.91;100.00;98635.06;5103662;28;20059;-78
2022/12/04 12:15:19;;;;;;;17.10;8.20;;;;;;;1.97;100.00;98625.59;5118188;27;20515;-79
2022/12/04 12:17:54;;;;;;;20.67;9.13;;;;;;;1.86;100.00;98596.28;5131305;27;20130;-78
2022/12/04 12:20:30;;;;;;;20.67;8.45;;;;;;;2.07;100.00;98613.03;5118388;27;20413;-78
2022/12/04 12:23:23;;;;;;;22.38;9.38;;;;;;;2.13;100.00;98609.75;5117811;27;20047;-79
2022/12/04 12:25:56;;;;;;;22.35;9.85;;;;;;;2.17;100.00;98610.34;5125963;27;20050;-79
2022/12/04 12:28:41;;;;;;;16.88;8.18;;;;;;;2.04;100.00;98599.06;5123189;27;20560;-79
2022/12/04 12:31:26;;;;;;;24.38;9.80;;;;;;;2.16;100.00;98605.13;5110258;28;20479;-79
2022/12/04 12:33:58;;;;;;;19.05;8.30;;;;;;;2.17;100.00;98604.97;5115064;27;20053;-78
2022/12/04 12:36:31;;;;;;;16.92;8.48;;;;;;;2.22;100.00;98599.16;5131027;27;20522;-78
2022/12/04 12:39:02;;;;;;;19.58;9.00;;;;;;;2.24;100.00;98573.91;5126665;27;20505;-78
2022/12/04 12:41:37;;;;;;;17.70;8.80;;;;;;;2.21;100.00;98576.00;5125280;27;20138;-79
2022/12/04 12:44:10;;;;;;;20.33;9.02;;;;;;;2.26;100.00;98596.03;5123631;27;20055;-77
2022/12/04 12:46:50;;;;;;;17.05;8.13;;;;;;;2.24;100.00;98591.81;5135013;27;20409;-78
2022/12/04 12:49:21;;;;;;;23.13;10.63;;;;;;;2.14;100.00;98570.41;5135445;27;20176;-77
2022/12/04 12:51:54;;;;;;;27.90;13.48;;;;;;;2.38;100.00;98599.41;5133980;27;20043;-78
2022/12/04 12:54:31;;;;;;;25.88;10.68;;;;;;;2.44;100.00;98587.25;5129993;27;20138;-78
2022/12/04 12:57:05;;;;;;;24.70;11.13;;;;;;;2.40;100.00;98601.94;5131260;27;20047;-78
2022/12/04 12:59:33;;;;;;;26.02;12.23;;;;;;;2.42;100.00;98600.78;5134975;27;20096;-78
2022/12/04 13:02:06;;;;;;;19.35;10.02;;;;;;;2.30;100.00;98586.72;5134390;27;20046;-77
2022/12/04 13:04:38;;;;;;;22.75;8.80;;;;;;;2.38;100.00;98577.94;5132780;27;20172;-77
2022/12/04 13:07:21;;;;;;;21.65;9.25;;;;;;;2.16;100.00;98564.88;5132698;27;20153;-78
2022/12/04 13:09:53;;;;;;;26.60;10.80;;;;;;;2.32;100.00;98581.22;5113963;28;20510;-78
2022/12/04 13:12:22;;;;;;;22.23;10.43;;;;;;;2.21;100.00;98573.31;5115509;27;20058;-78
2022/12/04 13:14:49;;;;;;;22.47;10.03;;;;;;;2.21;100.00;98560.75;5126618;27;20406;-78
2022/12/04 13:17:20;;;;;;;28.63;10.77;;;;;;;2.27;100.00;98591.50;5131681;27;20289;-78
2022/12/04 13:19:52;;;;;;;23.50;11.13;;;;;;;2.21;100.00;98565.28;5114175;28;20391;-78
2022/12/04 13:22:27;;;;;;;21.45;9.70;;;;;;;2.07;100.00;98554.03;5113475;28;20124;-78
2022/12/04 13:25:15;;;;;;;40.63;14.70;;;;;;;2.28;100.00;98587.84;5125443;27;20180;-78
2022/12/04 13:27:51;;;;;;;20.50;9.60;;;;;;;2.33;100.00;98595.47;5129963;27;20501;-78
2022/12/04 13:30:20;;;;;;;22.70;10.55;;;;;;;2.13;100.00;98574.06;5124969;27;20406;-78
2022/12/04 13:33:22;;;;;;;23.65;10.02;;;;;;;2.15;100.00;98576.59;5133463;27;20047;-78
2022/12/04 13:36:16;;;;;;;24.95;9.90;;;;;;;2.09;100.00;98578.03;5124835;27;20437;-78
2022/12/04 13:38:56;;;;;;;23.38;8.85;;;;;;;2.21;100.00;98609.03;5113508;28;20124;-79
2022/12/04 13:41:23;;;;;;;;;;;;;;;2.24;100.00;98608.78;5113576;27;20051;-79
2022/12/04 13:43:52;;;;;;;19.90;8.30;;;;;;;2.09;100.00;98599.47;5113063;27;19942;-78
2022/12/04 13:46:29;;;;;;;22.75;9.90;;;;;;;2.16;100.00;98602.44;5133098;27;20046;-79
2022/12/04 13:49:07;;;;;;;25.83;9.93;;;;;;;2.23;100.00;98616.94;5134076;27;20051;-80
2022/12/04 13:51:37;;;;;;;22.98;9.77;;;;;;;2.23;100.00;98616.94;5133760;27;20043;-79
2022/12/04 13:54:26;;;;;;;24.08;10.98;;;;;;;2.07;100.00;98586.22;5124883;27;20130;-79
2022/12/04 13:56:55;;;;;;;19.20;9.68;;;;;;;2.10;100.00;98591.28;5133365;27;20039;-79
2022/12/04 13:59:36;;;;;;;21.45;9.95;;;;;;;2.06;100.00;98584.53;5133827;27;20062;-79
2022/12/04 14:02:19;;;;;;;25.83;9.88;;;;;;;2.09;100.00;98583.38;5124650;27;20133;-79
2022/12/04 14:04:52;;;;;;;26.30;10.65;;;;;;;2.15;100.00;98587.31;5128180;27;20047;-79
2022/12/04 14:07:25;;;;;;;25.27;11.70;;;;;;;2.22;100.00;98610.72;5124063;27;20053;-79
2022/12/04 14:09:55;;;;;;;27.20;10.45;;;;;;;2.16;100.00;98600.59;5133285;27;20089;-78
2022/12/04 14:12:28;;;;;;;21.50;11.05;;;;;;;2.16;100.00;98600.59;5132424;27;20415;-78
2022/12/04 14:14:57;;;;;;;27.92;11.40;;;;;;;2.20;100.00;98593.94;5126454;27;20047;-79
2022/12/04 14:17:26;;;;;;;25.65;12.07;;;;;;;2.07;100.00;98580.00;5124116;27;20044;-78
2022/12/04 14:19:56;;;;;;;31.15;13.68;;;;;;;2.04;100.00;98564.22;5128377;27;20175;-78
2022/12/04 14:22:39;;;;;;;30.80;12.52;;;;;;;2.09;100.00;98578.03;5132494;27;20065;-78
2022/12/04 14:25:21;;;;;;;25.58;10.95;;;;;;;2.08;100.00;98552.22;5131109;27;20103;-77
2022/12/04 14:27:51;;;;;;;22.73;9.25;;;;;;;2.08;100.00;98552.22;5127386;27;20054;-79
2022/12/04 14:30:20;;;;;;;32.00;10.93;;;;;;;1.95;100.00;98539.13;5122080;27;20047;-79
2022/12/04 14:32:49;;;;;;;25.05;10.68;;;;;;;1.95;100.00;98553.34;5111668;28;20047;-79
2022/12/04 14:35:19;;;;;;;27.55;11.80;;;;;;;2.00;100.00;98581.56;5127771;27;20438;-79
2022/12/04 14:37:52;;;;;;;25.00;11.57;;;;;;;1.81;100.00;98556.50;5132555;27;20047;-79
2022/12/04 14:40:24;;;;;;;32.45;11.40;;;;;;;1.92;100.00;98585.81;5132839;27;20095;-80
2022/12/04 14:42:51;;;;;;;27.90;12.23;;;;;;;1.84;100.00;98574.16;5117929;27;20053;-78
2022/12/04 14:45:25;;;;;;;29.80;12.32;;;;;;;1.99;100.00;98606.69;5125725;27;20518;-78
2022/12/04 14:48:07;;;;;;;33.55;12.77;;;;;;;2.04;100.00;98602.59;5132669;27;20051;-79
2022/12/04 14:50:42;;;;;;;27.40;12.13;;;;;;;1.91;100.00;98588.63;5128762;27;20051;-80
2022/12/04 14:53:23;;;;;;;31.85;13.07;;;;;;;1.89;100.00;98578.06;5131564;27;20053;-80
2022/12/04 14:55:56;;;;;;;37.40;13.25;;;;;;;1.88;100.00;98584.44;5119099;27;20047;-78
2022/12/04 14:58:30;;;;;;;34.60;13.57;;;;;;;2.07;100.00;98614.88;5132382;27;20097;-78
2022/12/04 15:00:58;;;;;;;39.47;15.23;;;;;;;1.92;100.00;98595.69;5132440;27;20057;-78
2022/12/04 15:03:26;;;;;;;32.55;14.52;;;;;;;1.91;100.00;98586.81;5121919;27;20119;-78
2022/12/04 15:06:01;;;;;;;31.25;12.15;;;;;;;2.07;100.00;98604.16;5123140;27;20047;-78
2022/12/04 15:08:29;;;;;;;28.67;12.40;;;;;;;1.94;100.00;98591.03;5124275;27;20135;-78
2022/12/04 15:13:40;;;;;;;33.72;13.48;;;;;;;2.11;100.00;98608.22;5124908;27;20560;-78
2022/12/04 15:16:16;;;;;;;27.40;13.30;;;;;;;1.96;100.00;98581.03;5122037;27;20059;-76
2022/12/04 15:18:53;;;;;;;34.97;13.60;;;;;;;2.07;100.00;98606.81;5125506;27;20051;-78
2022/12/04 15:21:21;;;;;;;29.83;13.00;;;;;;;1.88;100.00;98599.66;5131932;27;20515;-78
2022/12/04 15:23:49;;;;;;;31.70;13.30;;;;;;;1.97;100.00;98619.41;5131007;27;20051;-78
2022/12/04 15:26:19;;;;;;;40.15;15.13;;;;;;;1.89;100.00;98606.72;5126995;27;20138;-79
2022/12/04 15:28:49;;;;;;;29.05;12.45;;;;;;;1.96;100.00;98618.56;5125343;27;20047;-78
2022/12/04 15:31:18;;;;;;;;;;;;;;;2.06;100.00;98624.75;5132340;27;20113;-78
2022/12/04 15:33:47;;;;;;;34.47;12.85;;;;;;;1.91;100.00;98610.09;5126113;27;19924;-78
2022/12/04 15:36:18;;;;;;;33.63;13.63;;;;;;;1.97;100.00;98622.06;5120005;27;20070;-78
2022/12/04 15:38:47;;;;;;;36.53;15.85;;;;;;;1.84;100.00;98604.47;5131212;27;20478;-78
2022/12/04 15:41:32;;;;;;;39.05;14.55;;;;;;;2.08;100.00;98635.34;5131791;27;20047;-79
2022/12/04 15:43:59;;;;;;;37.22;13.07;;;;;;;1.82;100.00;98608.25;5129310;27;20124;-80
2022/12/04 15:46:31;;;;;;;37.42;15.80;;;;;;;1.88;100.00;98613.91;5123409;27;20039;-79
2022/12/04 15:49:17;;;;;;;44.40;17.77;;;;;;;1.81;100.00;98595.84;5116218;27;20044;-79
2022/12/04 15:51:45;;;;;;;34.05;14.10;;;;;;;1.93;100.00;98626.91;5111254;28;20054;-79
2022/12/04 15:54:15;;;;;;;31.17;13.05;;;;;;;1.78;100.00;98605.03;5110608;28;20052;-79
2022/12/04 15:56:43;;;;;;;;;;;;;;;1.89;100.00;98617.44;5125454;27;20050;-79
2022/12/04 15:59:17;;;;;;;40.10;13.75;;;;;;;1.94;100.00;98621.38;5131594;27;19919;-78
2022/12/04 16:01:44;;;;;;;42.10;13.95;;;;;;;1.83;100.00;98609.97;5127722;27;20055;-79
2022/12/04 16:04:20;;;;;;;34.78;14.40;;;;;;;1.94;100.00;98617.84;5124655;27;20055;-79
2022/12/04 16:06:48;;;;;;;36.30;13.75;;;;;;;1.89;100.00;98599.50;5125743;27;20141;-79
2022/12/04 16:09:21;;;;;;;42.08;15.88;;;;;;;1.93;100.00;98600.91;5117941;27;20453;-79
2022/12/04 16:11:59;;;;;;;43.55;15.65;;;;;;;1.82;100.00;98594.88;5110373;28;20075;-79
2022/12/04 16:14:26;;;;;;;37.97;14.60;;;;;;;1.73;100.00;98586.72;5109735;28;20055;-79
2022/12/04 16:16:54;;;;;;;43.42;13.93;;;;;;;1.80;100.00;98586.13;5127273;27;20130;-79
2022/12/04 16:19:28;;;;;;;45.25;14.95;;;;;;;1.72;100.00;98585.00;5135284;27;20490;-79
2022/12/04 16:21:55;;;;;;;44.63;16.60;;;;;;;1.70;100.00;98573.59;5129667;27;20062;-79
2022/12/04 16:24:22;;;;;;;39.47;16.30;;;;;;;1.75;100.00;98592.75;5134133;27;20512;-79
2022/12/04 16:26:49;;;;;;;45.35;14.95;;;;;;;1.88;100.00;98600.50;5115818;27;20486;-79
2022/12/04 16:29:17;;;;;;;42.28;15.18;;;;;;;1.73;100.00;98583.16;5122595;27;20044;-79
2022/12/04 16:31:44;;;;;;;43.35;16.02;;;;;;;1.72;100.00;98585.00;5102689;27;20275;-79
2022/12/04 16:34:12;;;;;;;45.25;15.35;;;;;;;1.88;100.00;98605.88;5101947;27;20066;-79
2022/12/04 16:36:39;;;;;;;45.17;16.17;;;;;;;1.87;100.00;98584.56;5104264;27;20044;-79
2022/12/04 16:39:06;;;;;;;48.95;16.40;;;;;;;1.84;100.00;98591.06;5114783;27;20058;-79
2022/12/04 16:41:32;;;;;;;47.55;16.67;;;;;;;1.84;100.00;98590.22;5102166;27;20501;-79
2022/12/04 16:44:00;;;;;;;46.95;15.77;;;;;;;1.87;100.00;98587.25;5103994;27;20154;-79
2022/12/04 16:46:29;;;;;;;47.63;17.10;;;;;;;1.71;100.00;98564.53;5104807;27;20075;-78
2022/12/04 16:48:56;;;;;;;41.10;15.77;;;;;;;1.81;100.00;98574.41;5104599;27;20192;-79
2022/12/04 16:51:25;;;;;;;51.85;19.85;;;;;;;2.02;100.00;98577.75;5105209;27;20050;-78
2022/12/04 16:53:53;;;;;;;47.88;17.85;;;;;;;1.91;100.00;98600.22;5100641;27;20498;-78
2022/12/04 16:56:19;;;;;;;45.70;17.90;;;;;;;1.85;100.00;98565.97;5109564;27;20126;-78
2022/12/04 16:58:46;;;;;;;57.75;18.70;;;;;;;1.84;100.00;98563.44;5112691;27;20050;-79
2022/12/04 17:01:20;;;;;;;48.95;16.63;;;;;;;1.84;100.00;98574.97;5113016;27;20062;-79
2022/12/04 17:03:48;;;;;;;45.50;16.67;;;;;;;2.06;100.00;98581.00;5106877;27;20051;-79
